KCDN/CDN METAR and TAF weather

Enter ICAO airport designator
Station Type Date Time Source
KCDN METAR 2020/03/31 21:55 UTC NOAA

KCDN 312155Z AUTO 07009KT 10SM FEW055 SCT110 12/11 A2960 RMK AO2


Station Type Date Time Source
KCDN Decoded METAR 2020/03/31 21:55 UTC NOAA

Station name not available
Mar 31, 2020 - 05:55 PM EDT / 2020.03.31 2155 UTC
Wind: from the ENE (070 degrees) at 10 MPH (9 KT):0
Visibility: 10 mile(s):0
Sky conditions: partly cloudy
Temperature: 53 F (12 C)
Dew Point: 51 F (11 C)
Relative Humidity: 93%
Pressure (altimeter): 29.6 in. Hg (1002 hPa)
ob: KCDN 312155Z AUTO 07009KT 10SM FEW055 SCT110 12/11 A2960 RMK AO2
cycle: 22

Station Type Date Time Source
KCDN TAF UTC NOAA

Error!

Example: see airport list